Accueil
METAR-TAF:

METAR-TAF

Aéroports :

Plantation Airpark

Sylvania, Géorgie, États-Unis

latitude: 32-38-43N, longitude: 081-35-47W, altitude: 57 m

Observation

Le bulletin a été fait il y a 25 minutes, à 06:35 UTC
Vent 3 kt de sud/sud-ouest
Température 7°C
Humidité 61%
Pression 1025 hPa
Visibilité: 16.1 km
Nuages fragmentés à une hauteur de 7000 ft
Nuages fragmentés à une hauteur de 8500 ft

METAR: KJYL 200635Z AUTO 21003KT 10SM BKN070 BKN085 07/00 A3028 RMK AO2 T00700000

Heure: 02:00 (07:00 UTC)


TAF: absent

Observations et prévisions météorologiques de plus de 4000 aéroports (messages METAR et TAF).

Les stations disponibles sont représentées par des disques jaunes et rouges sur la carte.

Passer la souris dessus pour voir le nom de la station.

Cliquer dessus pour voir les observations et prévisions météorologiques.

Pour changer de carte: cliquez sur les boutons verts avec une croix noire pour zoomer, sur le bouton vert avec un tiret pour effectuer un zoom arrière, ou sur les flèches vertes pour les cartes adjacentes.


METAR-TAF: